sensor_id;sensor_type;location;lat;lon;timestamp;P1;durP1;ratioP1;P2;durP2;ratioP2
20065;SDS011;10193;48.884;9.182;2022-11-15T00:00:07;2.72;;;2.53;;
20065;SDS011;10193;48.884;9.182;2022-11-15T00:02:35;3.08;;;2.58;;
20065;SDS011;10193;48.884;9.182;2022-11-15T00:05:02;4.30;;;2.70;;
20065;SDS011;10193;48.884;9.182;2022-11-15T00:07:29;3.00;;;2.70;;
20065;SDS011;10193;48.884;9.182;2022-11-15T00:09:56;2.95;;;2.58;;
20065;SDS011;10193;48.884;9.182;2022-11-15T00:12:22;2.55;;;2.35;;
20065;SDS011;10193;48.884;9.182;2022-11-15T00:14:50;2.53;;;2.33;;
20065;SDS011;10193;48.884;9.182;2022-11-15T00:17:17;2.70;;;2.50;;
20065;SDS011;10193;48.884;9.182;2022-11-15T00:19:44;2.60;;;2.40;;
20065;SDS011;10193;48.884;9.182;2022-11-15T00:22:10;2.92;;;2.50;;
20065;SDS011;10193;48.884;9.182;2022-11-15T00:24:37;4.32;;;2.63;;
20065;SDS011;10193;48.884;9.182;2022-11-15T00:27:04;3.40;;;2.40;;
20065;SDS011;10193;48.884;9.182;2022-11-15T00:29:30;2.40;;;2.20;;
20065;SDS011;10193;48.884;9.182;2022-11-15T00:31:58;2.50;;;2.30;;
20065;SDS011;10193;48.884;9.182;2022-11-15T00:34:25;2.58;;;2.38;;
20065;SDS011;10193;48.884;9.182;2022-11-15T00:36:51;3.33;;;2.63;;
20065;SDS011;10193;48.884;9.182;2022-11-15T00:39:18;2.70;;;2.50;;
20065;SDS011;10193;48.884;9.182;2022-11-15T00:41:45;3.00;;;2.70;;
20065;SDS011;10193;48.884;9.182;2022-11-15T00:44:11;3.08;;;2.58;;
20065;SDS011;10193;48.884;9.182;2022-11-15T00:46:38;2.58;;;2.38;;
20065;SDS011;10193;48.884;9.182;2022-11-15T00:49:06;3.08;;;2.15;;
20065;SDS011;10193;48.884;9.182;2022-11-15T00:51:33;2.30;;;2.10;;
20065;SDS011;10193;48.884;9.182;2022-11-15T00:53:59;2.90;;;2.30;;
20065;SDS011;10193;48.884;9.182;2022-11-15T00:56:26;3.45;;;2.20;;
20065;SDS011;10193;48.884;9.182;2022-11-15T00:58:53;2.35;;;2.15;;
20065;SDS011;10193;48.884;9.182;2022-11-15T01:01:19;2.70;;;2.50;;
20065;SDS011;10193;48.884;9.182;2022-11-15T01:03:46;2.85;;;2.35;;
20065;SDS011;10193;48.884;9.182;2022-11-15T01:06:14;3.25;;;2.22;;
20065;SDS011;10193;48.884;9.182;2022-11-15T01:08:41;2.90;;;2.60;;
20065;SDS011;10193;48.884;9.182;2022-11-15T01:11:08;2.38;;;2.17;;
20065;SDS011;10193;48.884;9.182;2022-11-15T01:13:37;2.50;;;2.30;;
20065;SDS011;10193;48.884;9.182;2022-11-15T01:16:06;3.00;;;2.40;;
20065;SDS011;10193;48.884;9.182;2022-11-15T01:18:33;2.47;;;2.28;;
20065;SDS011;10193;48.884;9.182;2022-11-15T01:21:04;2.97;;;2.15;;
20065;SDS011;10193;48.884;9.182;2022-11-15T01:23:33;2.40;;;2.20;;
20065;SDS011;10193;48.884;9.182;2022-11-15T01:26:00;2.63;;;2.42;;
20065;SDS011;10193;48.884;9.182;2022-11-15T01:28:29;2.60;;;2.40;;
20065;SDS011;10193;48.884;9.182;2022-11-15T01:30:57;2.38;;;2.20;;
20065;SDS011;10193;48.884;9.182;2022-11-15T01:33:24;2.33;;;2.13;;
20065;SDS011;10193;48.884;9.182;2022-11-15T01:35:51;2.67;;;2.25;;
20065;SDS011;10193;48.884;9.182;2022-11-15T01:38:18;2.38;;;2.17;;
20065;SDS011;10193;48.884;9.182;2022-11-15T01:40:46;2.70;;;2.50;;
20065;SDS011;10193;48.884;9.182;2022-11-15T01:43:19;2.50;;;2.30;;
20065;SDS011;10193;48.884;9.182;2022-11-15T01:45:47;2.30;;;2.10;;
20065;SDS011;10193;48.884;9.182;2022-11-15T01:48:19;2.40;;;2.20;;
20065;SDS011;10193;48.884;9.182;2022-11-15T01:50:47;3.13;;;2.13;;
20065;SDS011;10193;48.884;9.182;2022-11-15T01:53:15;2.22;;;1.98;;
20065;SDS011;10193;48.884;9.182;2022-11-15T01:55:43;2.25;;;2.10;;
20065;SDS011;10193;48.884;9.182;2022-11-15T01:58:11;2.50;;;2.20;;
20065;SDS011;10193;48.884;9.182;2022-11-15T02:00:38;1.98;;;1.77;;
20065;SDS011;10193;48.884;9.182;2022-11-15T02:03:05;2.00;;;1.85;;
20065;SDS011;10193;48.884;9.182;2022-11-15T02:05:32;2.15;;;1.83;;
20065;SDS011;10193;48.884;9.182;2022-11-15T02:07:59;2.40;;;2.08;;
20065;SDS011;10193;48.884;9.182;2022-11-15T02:10:27;2.58;;;2.05;;
20065;SDS011;10193;48.884;9.182;2022-11-15T02:12:54;2.08;;;1.98;;
20065;SDS011;10193;48.884;9.182;2022-11-15T02:15:24;2.22;;;1.95;;
20065;SDS011;10193;48.884;9.182;2022-11-15T02:18:07;1.90;;;1.80;;
20065;SDS011;10193;48.884;9.182;2022-11-15T02:20:43;2.10;;;1.90;;
20065;SDS011;10193;48.884;9.182;2022-11-15T02:29:44;1.85;;;1.75;;
20065;SDS011;10193;48.884;9.182;2022-11-15T02:32:30;2.08;;;1.88;;
20065;SDS011;10193;48.884;9.182;2022-11-15T02:35:04;2.08;;;1.90;;
20065;SDS011;10193;48.884;9.182;2022-11-15T02:37:39;1.90;;;1.80;;
20065;SDS011;10193;48.884;9.182;2022-11-15T02:40:13;1.73;;;1.63;;
20065;SDS011;10193;48.884;9.182;2022-11-15T02:42:50;2.15;;;2.05;;
20065;SDS011;10193;48.884;9.182;2022-11-15T02:45:39;2.15;;;1.90;;
20065;SDS011;10193;48.884;9.182;2022-11-15T02:48:10;3.10;;;1.80;;
20065;SDS011;10193;48.884;9.182;2022-11-15T02:50:38;2.20;;;2.10;;
20065;SDS011;10193;48.884;9.182;2022-11-15T02:53:04;2.00;;;1.88;;
20065;SDS011;10193;48.884;9.182;2022-11-15T02:55:32;1.60;;;1.50;;
20065;SDS011;10193;48.884;9.182;2022-11-15T02:58:19;2.63;;;1.80;;
20065;SDS011;10193;48.884;9.182;2022-11-15T03:00:58;2.13;;;1.80;;
20065;SDS011;10193;48.884;9.182;2022-11-15T03:03:36;1.88;;;1.77;;
20065;SDS011;10193;48.884;9.182;2022-11-15T03:06:15;2.05;;;1.75;;
20065;SDS011;10193;48.884;9.182;2022-11-15T03:08:50;1.80;;;1.70;;
20065;SDS011;10193;48.884;9.182;2022-11-15T03:11:23;2.33;;;1.65;;
20065;SDS011;10193;48.884;9.182;2022-11-15T03:13:53;2.17;;;1.98;;
20065;SDS011;10193;48.884;9.182;2022-11-15T03:16:26;2.72;;;1.80;;
20065;SDS011;10193;48.884;9.182;2022-11-15T03:18:58;1.80;;;1.70;;
20065;SDS011;10193;48.884;9.182;2022-11-15T03:21:28;1.90;;;1.80;;
20065;SDS011;10193;48.884;9.182;2022-11-15T03:23:58;2.20;;;2.08;;
20065;SDS011;10193;48.884;9.182;2022-11-15T03:26:28;3.70;;;2.35;;
20065;SDS011;10193;48.884;9.182;2022-11-15T03:28:56;3.53;;;2.20;;
20065;SDS011;10193;48.884;9.182;2022-11-15T03:31:28;2.45;;;2.25;;
20065;SDS011;10193;48.884;9.182;2022-11-15T03:34:16;2.40;;;2.20;;
20065;SDS011;10193;48.884;9.182;2022-11-15T03:36:48;3.33;;;2.33;;
20065;SDS011;10193;48.884;9.182;2022-11-15T03:39:16;2.80;;;2.58;;
20065;SDS011;10193;48.884;9.182;2022-11-15T03:41:46;2.80;;;2.47;;
20065;SDS011;10193;48.884;9.182;2022-11-15T03:44:18;3.67;;;2.72;;
20065;SDS011;10193;48.884;9.182;2022-11-15T03:46:55;3.20;;;2.60;;
20065;SDS011;10193;48.884;9.182;2022-11-15T03:49:29;2.67;;;2.47;;
20065;SDS011;10193;48.884;9.182;2022-11-15T03:51:59;2.78;;;2.58;;
20065;SDS011;10193;48.884;9.182;2022-11-15T03:54:27;3.28;;;2.97;;
20065;SDS011;10193;48.884;9.182;2022-11-15T03:56:54;3.40;;;2.90;;
20065;SDS011;10193;48.884;9.182;2022-11-15T03:59:21;3.83;;;2.80;;
20065;SDS011;10193;48.884;9.182;2022-11-15T04:01:48;3.53;;;3.00;;
20065;SDS011;10193;48.884;9.182;2022-11-15T04:04:15;3.70;;;3.10;;
20065;SDS011;10193;48.884;9.182;2022-11-15T04:06:43;3.22;;;2.92;;
20065;SDS011;10193;48.884;9.182;2022-11-15T04:09:09;3.28;;;2.97;;
20065;SDS011;10193;48.884;9.182;2022-11-15T04:11:36;3.45;;;3.15;;
20065;SDS011;10193;48.884;9.182;2022-11-15T04:14:03;3.85;;;3.20;;
20065;SDS011;10193;48.884;9.182;2022-11-15T04:16:29;3.53;;;3.22;;
20065;SDS011;10193;48.884;9.182;2022-11-15T04:18:56;4.60;;;2.92;;
20065;SDS011;10193;48.884;9.182;2022-11-15T04:21:36;3.15;;;2.92;;
20065;SDS011;10193;48.884;9.182;2022-11-15T04:24:22;3.20;;;2.90;;
20065;SDS011;10193;48.884;9.182;2022-11-15T04:26:48;3.72;;;3.20;;
20065;SDS011;10193;48.884;9.182;2022-11-15T04:29:15;3.35;;;2.85;;
20065;SDS011;10193;48.884;9.182;2022-11-15T04:32:00;3.97;;;3.15;;
20065;SDS011;10193;48.884;9.182;2022-11-15T04:34:27;4.00;;;3.20;;
20065;SDS011;10193;48.884;9.182;2022-11-15T04:36:54;3.10;;;2.80;;
20065;SDS011;10193;48.884;9.182;2022-11-15T04:39:41;3.38;;;3.08;;
20065;SDS011;10193;48.884;9.182;2022-11-15T04:42:09;4.63;;;3.25;;
20065;SDS011;10193;48.884;9.182;2022-11-15T04:44:36;3.25;;;2.90;;
20065;SDS011;10193;48.884;9.182;2022-11-15T04:47:03;2.95;;;2.75;;
20065;SDS011;10193;48.884;9.182;2022-11-15T04:49:29;3.03;;;2.78;;
20065;SDS011;10193;48.884;9.182;2022-11-15T04:51:56;3.55;;;3.25;;
20065;SDS011;10193;48.884;9.182;2022-11-15T04:54:23;4.03;;;3.13;;
20065;SDS011;10193;48.884;9.182;2022-11-15T04:56:51;3.22;;;3.00;;
20065;SDS011;10193;48.884;9.182;2022-11-15T04:59:17;3.60;;;3.30;;
20065;SDS011;10193;48.884;9.182;2022-11-15T05:01:44;3.38;;;3.08;;
20065;SDS011;10193;48.884;9.182;2022-11-15T05:04:11;3.42;;;3.03;;
20065;SDS011;10193;48.884;9.182;2022-11-15T05:06:46;3.20;;;2.90;;
20065;SDS011;10193;48.884;9.182;2022-11-15T05:09:13;3.53;;;3.20;;
20065;SDS011;10193;48.884;9.182;2022-11-15T05:11:40;3.40;;;2.90;;
20065;SDS011;10193;48.884;9.182;2022-11-15T05:14:08;3.25;;;2.95;;
20065;SDS011;10193;48.884;9.182;2022-11-15T05:16:35;3.40;;;3.10;;
20065;SDS011;10193;48.884;9.182;2022-11-15T05:19:02;2.90;;;2.70;;
20065;SDS011;10193;48.884;9.182;2022-11-15T05:21:29;3.22;;;2.92;;
20065;SDS011;10193;48.884;9.182;2022-11-15T05:23:56;3.05;;;2.85;;
20065;SDS011;10193;48.884;9.182;2022-11-15T05:26:23;3.13;;;2.83;;
20065;SDS011;10193;48.884;9.182;2022-11-15T05:28:52;3.42;;;3.08;;
20065;SDS011;10193;48.884;9.182;2022-11-15T05:31:21;3.38;;;3.00;;
20065;SDS011;10193;48.884;9.182;2022-11-15T05:33:48;3.38;;;2.70;;
20065;SDS011;10193;48.884;9.182;2022-11-15T05:36:17;2.90;;;2.63;;
20065;SDS011;10193;48.884;9.182;2022-11-15T05:38:48;3.03;;;2.72;;
20065;SDS011;10193;48.884;9.182;2022-11-15T05:41:15;2.65;;;2.45;;
20065;SDS011;10193;48.884;9.182;2022-11-15T05:43:44;2.95;;;2.67;;
20065;SDS011;10193;48.884;9.182;2022-11-15T05:46:11;2.60;;;2.40;;
20065;SDS011;10193;48.884;9.182;2022-11-15T05:48:41;3.17;;;2.67;;
20065;SDS011;10193;48.884;9.182;2022-11-15T05:51:11;3.10;;;2.80;;
20065;SDS011;10193;48.884;9.182;2022-11-15T05:53:39;2.92;;;2.63;;
20065;SDS011;10193;48.884;9.182;2022-11-15T05:56:06;3.38;;;3.00;;
20065;SDS011;10193;48.884;9.182;2022-11-15T05:58:34;3.25;;;2.67;;
20065;SDS011;10193;48.884;9.182;2022-11-15T06:01:02;4.25;;;3.03;;
20065;SDS011;10193;48.884;9.182;2022-11-15T06:03:30;3.47;;;2.83;;
20065;SDS011;10193;48.884;9.182;2022-11-15T06:05:58;3.30;;;3.00;;
20065;SDS011;10193;48.884;9.182;2022-11-15T06:08:24;3.63;;;3.00;;
20065;SDS011;10193;48.884;9.182;2022-11-15T06:10:51;3.42;;;2.88;;
20065;SDS011;10193;48.884;9.182;2022-11-15T06:13:18;3.53;;;3.22;;
20065;SDS011;10193;48.884;9.182;2022-11-15T06:15:44;4.45;;;3.38;;
20065;SDS011;10193;48.884;9.182;2022-11-15T06:18:11;3.72;;;3.30;;
20065;SDS011;10193;48.884;9.182;2022-11-15T06:20:38;3.83;;;3.25;;
20065;SDS011;10193;48.884;9.182;2022-11-15T06:23:06;5.22;;;3.38;;
20065;SDS011;10193;48.884;9.182;2022-11-15T06:25:32;4.05;;;3.22;;
20065;SDS011;10193;48.884;9.182;2022-11-15T06:27:59;3.67;;;3.30;;
20065;SDS011;10193;48.884;9.182;2022-11-15T06:30:26;3.65;;;3.20;;
20065;SDS011;10193;48.884;9.182;2022-11-15T06:32:58;3.60;;;3.30;;
20065;SDS011;10193;48.884;9.182;2022-11-15T06:35:26;3.38;;;3.08;;
20065;SDS011;10193;48.884;9.182;2022-11-15T06:37:52;4.32;;;3.15;;
20065;SDS011;10193;48.884;9.182;2022-11-15T06:40:20;3.47;;;2.90;;
20065;SDS011;10193;48.884;9.182;2022-11-15T06:42:47;3.53;;;3.20;;
20065;SDS011;10193;48.884;9.182;2022-11-15T06:45:14;3.78;;;3.47;;
20065;SDS011;10193;48.884;9.182;2022-11-15T06:47:44;5.15;;;3.75;;
20065;SDS011;10193;48.884;9.182;2022-11-15T06:50:11;3.85;;;3.55;;
20065;SDS011;10193;48.884;9.182;2022-11-15T06:52:38;5.80;;;3.58;;
20065;SDS011;10193;48.884;9.182;2022-11-15T06:55:05;3.60;;;3.28;;
20065;SDS011;10193;48.884;9.182;2022-11-15T06:57:34;3.40;;;3.10;;
20065;SDS011;10193;48.884;9.182;2022-11-15T07:00:01;4.43;;;3.25;;
20065;SDS011;10193;48.884;9.182;2022-11-15T07:02:29;3.75;;;3.17;;
20065;SDS011;10193;48.884;9.182;2022-11-15T07:04:55;6.57;;;3.30;;
20065;SDS011;10193;48.884;9.182;2022-11-15T07:07:22;3.33;;;3.03;;
20065;SDS011;10193;48.884;9.182;2022-11-15T07:09:49;5.82;;;3.55;;
20065;SDS011;10193;48.884;9.182;2022-11-15T07:12:15;3.90;;;3.38;;
20065;SDS011;10193;48.884;9.182;2022-11-15T07:14:43;3.35;;;3.05;;
20065;SDS011;10193;48.884;9.182;2022-11-15T07:17:10;7.00;;;3.60;;
20065;SDS011;10193;48.884;9.182;2022-11-15T07:19:37;3.30;;;3.00;;
20065;SDS011;10193;48.884;9.182;2022-11-15T07:22:03;4.47;;;3.22;;
20065;SDS011;10193;48.884;9.182;2022-11-15T07:24:30;4.13;;;3.45;;
20065;SDS011;10193;48.884;9.182;2022-11-15T07:26:56;3.55;;;3.25;;
20065;SDS011;10193;48.884;9.182;2022-11-15T07:29:23;3.75;;;3.17;;
20065;SDS011;10193;48.884;9.182;2022-11-15T07:31:51;3.58;;;3.00;;
20065;SDS011;10193;48.884;9.182;2022-11-15T07:34:18;3.92;;;2.78;;
20065;SDS011;10193;48.884;9.182;2022-11-15T07:36:44;4.32;;;3.30;;
20065;SDS011;10193;48.884;9.182;2022-11-15T07:39:11;3.30;;;3.00;;
20065;SDS011;10193;48.884;9.182;2022-11-15T07:41:39;3.30;;;3.00;;
20065;SDS011;10193;48.884;9.182;2022-11-15T07:44:05;3.80;;;2.95;;
20065;SDS011;10193;48.884;9.182;2022-11-15T07:46:32;3.40;;;3.10;;
20065;SDS011;10193;48.884;9.182;2022-11-15T07:49:00;6.50;;;2.90;;
20065;SDS011;10193;48.884;9.182;2022-11-15T07:51:27;3.10;;;2.80;;
20065;SDS011;10193;48.884;9.182;2022-11-15T07:53:53;2.50;;;2.30;;
20065;SDS011;10193;48.884;9.182;2022-11-15T07:56:20;3.45;;;2.90;;
20065;SDS011;10193;48.884;9.182;2022-11-15T07:58:47;5.70;;;3.05;;
20065;SDS011;10193;48.884;9.182;2022-11-15T08:01:15;3.13;;;2.83;;
20065;SDS011;10193;48.884;9.182;2022-11-15T08:03:41;3.45;;;3.10;;
20065;SDS011;10193;48.884;9.182;2022-11-15T08:06:09;4.00;;;3.45;;
20065;SDS011;10193;48.884;9.182;2022-11-15T08:08:36;3.67;;;3.33;;
20065;SDS011;10193;48.884;9.182;2022-11-15T08:11:03;4.07;;;3.10;;
20065;SDS011;10193;48.884;9.182;2022-11-15T08:13:30;4.05;;;3.28;;
20065;SDS011;10193;48.884;9.182;2022-11-15T08:15:59;3.40;;;3.10;;
20065;SDS011;10193;48.884;9.182;2022-11-15T08:18:27;3.33;;;3.03;;
20065;SDS011;10193;48.884;9.182;2022-11-15T08:20:53;3.55;;;3.13;;
20065;SDS011;10193;48.884;9.182;2022-11-15T08:23:25;3.60;;;3.30;;
20065;SDS011;10193;48.884;9.182;2022-11-15T08:25:52;6.38;;;3.42;;
20065;SDS011;10193;48.884;9.182;2022-11-15T08:28:24;3.00;;;2.80;;
20065;SDS011;10193;48.884;9.182;2022-11-15T08:30:51;5.22;;;3.38;;
20065;SDS011;10193;48.884;9.182;2022-11-15T08:33:17;3.88;;;3.30;;
20065;SDS011;10193;48.884;9.182;2022-11-15T08:35:44;3.75;;;3.08;;
20065;SDS011;10193;48.884;9.182;2022-11-15T08:38:11;3.72;;;3.33;;
20065;SDS011;10193;48.884;9.182;2022-11-15T08:40:40;3.95;;;3.38;;
20065;SDS011;10193;48.884;9.182;2022-11-15T08:43:06;3.55;;;3.25;;
20065;SDS011;10193;48.884;9.182;2022-11-15T08:45:34;3.97;;;3.30;;
20065;SDS011;10193;48.884;9.182;2022-11-15T08:48:01;4.45;;;3.40;;
20065;SDS011;10193;48.884;9.182;2022-11-15T08:50:28;3.42;;;3.13;;
20065;SDS011;10193;48.884;9.182;2022-11-15T08:52:55;3.72;;;3.42;;
20065;SDS011;10193;48.884;9.182;2022-11-15T08:55:22;3.92;;;3.50;;
20065;SDS011;10193;48.884;9.182;2022-11-15T08:57:50;3.28;;;2.97;;
20065;SDS011;10193;48.884;9.182;2022-11-15T09:00:17;3.45;;;3.15;;
20065;SDS011;10193;48.884;9.182;2022-11-15T09:02:45;3.47;;;3.17;;
20065;SDS011;10193;48.884;9.182;2022-11-15T09:05:11;3.90;;;3.40;;
20065;SDS011;10193;48.884;9.182;2022-11-15T09:07:38;4.30;;;3.05;;
20065;SDS011;10193;48.884;9.182;2022-11-15T09:10:05;3.42;;;3.13;;
20065;SDS011;10193;48.884;9.182;2022-11-15T09:12:32;3.50;;;3.20;;
20065;SDS011;10193;48.884;9.182;2022-11-15T09:15:00;3.30;;;3.00;;
20065;SDS011;10193;48.884;9.182;2022-11-15T09:17:27;3.42;;;3.00;;
20065;SDS011;10193;48.884;9.182;2022-11-15T09:19:53;3.53;;;2.95;;
20065;SDS011;10193;48.884;9.182;2022-11-15T09:22:20;3.45;;;3.13;;
20065;SDS011;10193;48.884;9.182;2022-11-15T09:24:46;3.50;;;2.88;;
20065;SDS011;10193;48.884;9.182;2022-11-15T09:27:13;3.50;;;3.20;;
20065;SDS011;10193;48.884;9.182;2022-11-15T09:29:40;3.80;;;2.90;;
20065;SDS011;10193;48.884;9.182;2022-11-15T09:32:08;4.82;;;3.05;;
20065;SDS011;10193;48.884;9.182;2022-11-15T09:34:35;3.05;;;2.83;;
20065;SDS011;10193;48.884;9.182;2022-11-15T09:37:01;2.90;;;2.70;;
20065;SDS011;10193;48.884;9.182;2022-11-15T09:39:28;3.33;;;3.05;;
20065;SDS011;10193;48.884;9.182;2022-11-15T09:41:58;3.17;;;2.88;;
20065;SDS011;10193;48.884;9.182;2022-11-15T09:44:40;3.78;;;2.72;;
20065;SDS011;10193;48.884;9.182;2022-11-15T09:47:28;3.47;;;3.17;;
20065;SDS011;10193;48.884;9.182;2022-11-15T09:50:08;3.97;;;3.30;;
20065;SDS011;10193;48.884;9.182;2022-11-15T09:52:37;3.20;;;2.85;;
20065;SDS011;10193;48.884;9.182;2022-11-15T09:55:07;5.18;;;2.97;;
20065;SDS011;10193;48.884;9.182;2022-11-15T09:57:37;3.03;;;2.70;;
20065;SDS011;10193;48.884;9.182;2022-11-15T10:00:09;3.00;;;2.60;;
20065;SDS011;10193;48.884;9.182;2022-11-15T10:02:46;2.80;;;2.40;;
20065;SDS011;10193;48.884;9.182;2022-11-15T10:05:24;3.00;;;2.47;;
20065;SDS011;10193;48.884;9.182;2022-11-15T10:07:54;2.60;;;2.40;;
20065;SDS011;10193;48.884;9.182;2022-11-15T10:10:29;3.25;;;2.67;;
20065;SDS011;10193;48.884;9.182;2022-11-15T10:13:02;2.90;;;2.70;;
20065;SDS011;10193;48.884;9.182;2022-11-15T10:15:29;2.53;;;2.25;;
20065;SDS011;10193;48.884;9.182;2022-11-15T10:18:02;3.13;;;2.65;;
20065;SDS011;10193;48.884;9.182;2022-11-15T10:20:39;2.70;;;2.50;;
20065;SDS011;10193;48.884;9.182;2022-11-15T10:23:13;2.70;;;2.50;;
20065;SDS011;10193;48.884;9.182;2022-11-15T10:25:41;2.53;;;2.30;;
20065;SDS011;10193;48.884;9.182;2022-11-15T10:28:10;2.60;;;2.40;;
20065;SDS011;10193;48.884;9.182;2022-11-15T10:30:41;2.50;;;2.30;;
20065;SDS011;10193;48.884;9.182;2022-11-15T10:33:16;2.72;;;2.40;;
20065;SDS011;10193;48.884;9.182;2022-11-15T10:35:48;2.28;;;2.08;;
20065;SDS011;10193;48.884;9.182;2022-11-15T10:38:45;2.20;;;2.00;;
20065;SDS011;10193;48.884;9.182;2022-11-15T10:41:19;2.28;;;2.08;;
20065;SDS011;10193;48.884;9.182;2022-11-15T10:44:00;2.50;;;2.20;;
20065;SDS011;10193;48.884;9.182;2022-11-15T10:46:34;2.80;;;2.30;;
20065;SDS011;10193;48.884;9.182;2022-11-15T10:49:11;2.40;;;2.20;;
20065;SDS011;10193;48.884;9.182;2022-11-15T10:51:40;2.75;;;2.30;;
20065;SDS011;10193;48.884;9.182;2022-11-15T10:54:10;3.15;;;2.30;;
20065;SDS011;10193;48.884;9.182;2022-11-15T10:56:38;2.42;;;2.22;;
20065;SDS011;10193;48.884;9.182;2022-11-15T10:59:12;2.78;;;2.58;;
20065;SDS011;10193;48.884;9.182;2022-11-15T11:01:45;2.60;;;2.40;;
20065;SDS011;10193;48.884;9.182;2022-11-15T11:04:13;2.42;;;2.20;;
20065;SDS011;10193;48.884;9.182;2022-11-15T11:06:46;3.15;;;2.85;;
20065;SDS011;10193;48.884;9.182;2022-11-15T11:09:21;3.05;;;2.65;;
20065;SDS011;10193;48.884;9.182;2022-11-15T11:11:53;2.30;;;2.10;;
20065;SDS011;10193;48.884;9.182;2022-11-15T11:14:20;2.55;;;2.35;;
20065;SDS011;10193;48.884;9.182;2022-11-15T11:16:49;2.85;;;2.30;;
20065;SDS011;10193;48.884;9.182;2022-11-15T11:22:12;2.35;;;2.15;;
20065;SDS011;10193;48.884;9.182;2022-11-15T11:24:47;2.60;;;2.40;;
20065;SDS011;10193;48.884;9.182;2022-11-15T11:27:25;2.67;;;2.45;;
20065;SDS011;10193;48.884;9.182;2022-11-15T11:30:02;2.75;;;2.47;;
20065;SDS011;10193;48.884;9.182;2022-11-15T11:32:38;2.40;;;2.20;;
20065;SDS011;10193;48.884;9.182;2022-11-15T11:35:17;3.50;;;2.42;;
20065;SDS011;10193;48.884;9.182;2022-11-15T11:37:49;2.30;;;2.10;;
20065;SDS011;10193;48.884;9.182;2022-11-15T11:42:55;2.40;;;2.20;;
20065;SDS011;10193;48.884;9.182;2022-11-15T11:45:39;2.55;;;2.30;;
20065;SDS011;10193;48.884;9.182;2022-11-15T11:48:30;2.75;;;2.45;;
20065;SDS011;10193;48.884;9.182;2022-11-15T11:51:09;2.70;;;2.50;;
20065;SDS011;10193;48.884;9.182;2022-11-15T11:53:41;3.10;;;2.50;;
20065;SDS011;10193;48.884;9.182;2022-11-15T11:56:16;2.70;;;2.50;;
20065;SDS011;10193;48.884;9.182;2022-11-15T11:58:48;2.60;;;2.40;;
20065;SDS011;10193;48.884;9.182;2022-11-15T12:01:20;2.60;;;2.40;;
20065;SDS011;10193;48.884;9.182;2022-11-15T12:03:51;3.08;;;2.60;;
20065;SDS011;10193;48.884;9.182;2022-11-15T12:06:24;2.65;;;2.45;;
20065;SDS011;10193;48.884;9.182;2022-11-15T12:08:58;3.05;;;2.50;;
20065;SDS011;10193;48.884;9.182;2022-11-15T12:11:32;2.47;;;2.25;;
20065;SDS011;10193;48.884;9.182;2022-11-15T12:14:03;2.67;;;2.45;;
20065;SDS011;10193;48.884;9.182;2022-11-15T12:16:47;3.72;;;2.70;;
20065;SDS011;10193;48.884;9.182;2022-11-15T12:19:14;2.67;;;2.45;;
20065;SDS011;10193;48.884;9.182;2022-11-15T12:21:42;4.13;;;2.50;;
20065;SDS011;10193;48.884;9.182;2022-11-15T12:24:13;2.88;;;2.38;;
20065;SDS011;10193;48.884;9.182;2022-11-15T12:26:48;2.40;;;2.20;;
20065;SDS011;10193;48.884;9.182;2022-11-15T12:29:19;2.42;;;2.22;;
20065;SDS011;10193;48.884;9.182;2022-11-15T12:31:52;2.53;;;2.30;;
20065;SDS011;10193;48.884;9.182;2022-11-15T12:34:33;2.70;;;2.20;;
20065;SDS011;10193;48.884;9.182;2022-11-15T12:40:17;2.50;;;2.22;;
20065;SDS011;10193;48.884;9.182;2022-11-15T12:46:05;2.20;;;2.00;;
20065;SDS011;10193;48.884;9.182;2022-11-15T12:48:46;2.17;;;2.08;;
20065;SDS011;10193;48.884;9.182;2022-11-15T12:51:16;2.35;;;2.15;;
20065;SDS011;10193;48.884;9.182;2022-11-15T12:53:43;2.88;;;2.30;;
20065;SDS011;10193;48.884;9.182;2022-11-15T12:56:17;2.90;;;2.10;;
20065;SDS011;10193;48.884;9.182;2022-11-15T12:58:50;5.32;;;2.22;;
20065;SDS011;10193;48.884;9.182;2022-11-15T13:04:23;2.40;;;2.20;;
20065;SDS011;10193;48.884;9.182;2022-11-15T13:06:55;2.85;;;2.40;;
20065;SDS011;10193;48.884;9.182;2022-11-15T13:12:49;2.72;;;2.53;;
20065;SDS011;10193;48.884;9.182;2022-11-15T13:18:29;3.13;;;2.10;;
20065;SDS011;10193;48.884;9.182;2022-11-15T13:21:05;3.33;;;2.03;;
20065;SDS011;10193;48.884;9.182;2022-11-15T13:24:03;3.17;;;2.17;;
20065;SDS011;10193;48.884;9.182;2022-11-15T13:26:31;3.55;;;2.10;;
20065;SDS011;10193;48.884;9.182;2022-11-15T13:28:58;2.88;;;2.20;;
20065;SDS011;10193;48.884;9.182;2022-11-15T13:31:28;2.75;;;2.40;;
20065;SDS011;10193;48.884;9.182;2022-11-15T13:34:01;2.35;;;2.15;;
20065;SDS011;10193;48.884;9.182;2022-11-15T13:36:30;2.20;;;2.10;;
20065;SDS011;10193;48.884;9.182;2022-11-15T13:39:00;2.95;;;2.30;;
20065;SDS011;10193;48.884;9.182;2022-11-15T13:41:29;2.17;;;1.98;;
20065;SDS011;10193;48.884;9.182;2022-11-15T13:43:57;2.42;;;2.22;;
20065;SDS011;10193;48.884;9.182;2022-11-15T13:46:25;2.72;;;2.13;;
20065;SDS011;10193;48.884;9.182;2022-11-15T13:48:55;5.03;;;2.10;;
20065;SDS011;10193;48.884;9.182;2022-11-15T13:51:25;2.60;;;2.20;;
20065;SDS011;10193;48.884;9.182;2022-11-15T13:53:57;3.10;;;2.20;;
20065;SDS011;10193;48.884;9.182;2022-11-15T13:56:28;2.92;;;2.22;;
20065;SDS011;10193;48.884;9.182;2022-11-15T13:58:57;3.22;;;2.13;;
20065;SDS011;10193;48.884;9.182;2022-11-15T14:01:24;2.55;;;2.33;;
20065;SDS011;10193;48.884;9.182;2022-11-15T14:03:57;2.30;;;2.10;;
20065;SDS011;10193;48.884;9.182;2022-11-15T14:06:25;2.53;;;2.22;;
20065;SDS011;10193;48.884;9.182;2022-11-15T14:11:57;1.70;;;1.60;;
20065;SDS011;10193;48.884;9.182;2022-11-15T14:14:25;2.10;;;1.90;;
20065;SDS011;10193;48.884;9.182;2022-11-15T14:16:53;2.30;;;1.98;;
20065;SDS011;10193;48.884;9.182;2022-11-15T14:19:38;1.98;;;1.88;;
20065;SDS011;10193;48.884;9.182;2022-11-15T14:22:13;2.55;;;2.20;;
20065;SDS011;10193;48.884;9.182;2022-11-15T14:24:42;3.20;;;2.08;;
20065;SDS011;10193;48.884;9.182;2022-11-15T14:27:16;2.80;;;2.30;;
20065;SDS011;10193;48.884;9.182;2022-11-15T14:29:44;2.60;;;2.10;;
20065;SDS011;10193;48.884;9.182;2022-11-15T14:32:12;2.63;;;2.08;;
20065;SDS011;10193;48.884;9.182;2022-11-15T14:34:42;2.33;;;2.13;;
20065;SDS011;10193;48.884;9.182;2022-11-15T14:37:12;3.63;;;2.58;;
20065;SDS011;10193;48.884;9.182;2022-11-15T14:39:45;3.38;;;2.40;;
20065;SDS011;10193;48.884;9.182;2022-11-15T14:42:12;2.38;;;2.15;;
20065;SDS011;10193;48.884;9.182;2022-11-15T14:44:39;2.80;;;2.45;;
20065;SDS011;10193;48.884;9.182;2022-11-15T14:47:05;3.67;;;2.33;;
20065;SDS011;10193;48.884;9.182;2022-11-15T14:49:32;2.42;;;2.20;;
20065;SDS011;10193;48.884;9.182;2022-11-15T14:52:00;3.33;;;2.38;;
20065;SDS011;10193;48.884;9.182;2022-11-15T14:54:27;2.47;;;2.15;;
20065;SDS011;10193;48.884;9.182;2022-11-15T14:56:53;2.40;;;2.20;;
20065;SDS011;10193;48.884;9.182;2022-11-15T14:59:20;2.85;;;2.60;;
20065;SDS011;10193;48.884;9.182;2022-11-15T15:01:47;3.22;;;2.50;;
20065;SDS011;10193;48.884;9.182;2022-11-15T15:04:13;3.15;;;2.47;;
20065;SDS011;10193;48.884;9.182;2022-11-15T15:06:40;2.83;;;2.33;;
20065;SDS011;10193;48.884;9.182;2022-11-15T15:09:08;2.70;;;2.50;;
20065;SDS011;10193;48.884;9.182;2022-11-15T15:11:34;2.58;;;2.30;;
20065;SDS011;10193;48.884;9.182;2022-11-15T15:14:01;2.83;;;2.60;;
20065;SDS011;10193;48.884;9.182;2022-11-15T15:16:28;2.45;;;2.25;;
20065;SDS011;10193;48.884;9.182;2022-11-15T15:18:54;3.63;;;2.50;;
20065;SDS011;10193;48.884;9.182;2022-11-15T15:21:21;4.28;;;2.38;;
20065;SDS011;10193;48.884;9.182;2022-11-15T15:23:49;3.60;;;2.65;;
20065;SDS011;10193;48.884;9.182;2022-11-15T15:26:18;2.90;;;2.50;;
20065;SDS011;10193;48.884;9.182;2022-11-15T15:28:44;3.78;;;3.13;;
20065;SDS011;10193;48.884;9.182;2022-11-15T15:31:13;4.80;;;2.85;;
20065;SDS011;10193;48.884;9.182;2022-11-15T15:33:40;4.45;;;2.80;;